Time;durP1;ratioP1;P1;durP2;ratioP2;P2;SDS_P1;SDS_P2;PMS_P1;PMS_P2;Temp;Humidity;BMP_temperature;BMP_pressure;BME280_temperature;BME280_humidity;BME280_pressure;Samples;Min_cycle;Max_cycle;Signal;HPM_P1;HPM_P2
2023/07/05 00:01:54;;;;;;;7.33;4.03;;;20.70;90.00;;;;;;5092953;28;20945;-54
2023/07/05 00:04:20;;;;;;;9.17;4.10;;;20.70;90.50;;;;;;5092935;28;20933;-54
2023/07/05 00:06:47;;;;;;;9.20;4.73;;;20.70;90.60;;;;;;5093285;28;20444;-55
2023/07/05 00:09:14;;;;;;;6.60;3.60;;;20.70;91.10;;;;;;5092867;28;20967;-55
2023/07/05 00:11:40;;;;;;;8.80;3.30;;;20.60;91.40;;;;;;5093092;28;20455;-55
2023/07/05 00:14:08;;;;;;;4.60;3.37;;;20.60;91.20;;;;;;5093123;28;20532;-55
2023/07/05 00:16:35;;;;;;;5.90;3.20;;;20.60;91.60;;;;;;5092822;28;20953;-55
2023/07/05 00:19:02;;;;;;;3.70;3.20;;;20.60;92.10;;;;;;5093130;28;20459;-55
2023/07/05 00:21:28;;;;;;;3.80;2.90;;;20.50;92.20;;;;;;5093104;28;20440;-55
2023/07/05 00:23:55;;;;;;;6.13;3.43;;;20.40;92.40;;;;;;5093067;28;20464;-55
2023/07/05 00:26:24;;;;;;;9.30;3.60;;;20.50;92.70;;;;;;5093116;28;20470;-54
2023/07/05 00:28:50;;;;;;;3.90;3.40;;;20.40;92.90;;;;;;5093252;28;20458;-55
2023/07/05 00:31:18;;;;;;;4.53;3.53;;;20.40;93.10;;;;;;5093184;28;20451;-54
2023/07/05 00:33:45;;;;;;;7.43;3.53;;;20.30;93.30;;;;;;5092544;28;20479;-55
2023/07/05 00:36:12;;;;;;;3.63;3.13;;;20.30;93.30;;;;;;5092975;28;20812;-55
2023/07/05 00:38:39;;;;;;;2.80;2.60;;;20.40;93.60;;;;;;5092984;28;20448;-55
2023/07/05 00:41:05;;;;;;;3.40;2.97;;;20.30;93.70;;;;;;5092851;28;20443;-55
2023/07/05 00:43:32;;;;;;;5.53;3.90;;;20.30;93.70;;;;;;5092817;28;20464;-56
2023/07/05 00:46:00;;;;;;;5.57;3.83;;;20.30;93.90;;;;;;5092884;28;20501;-56
2023/07/05 00:48:34;;;;;;;3.50;3.20;;;20.30;93.80;;;;;;5095750;28;20447;-56
2023/07/05 00:51:05;;;;;;;3.53;2.87;;;20.40;94.20;;;;;;5096522;28;20428;-56
2023/07/05 00:53:37;;;;;;;4.20;2.87;;;20.40;93.90;;;;;;5096393;28;20487;-56
2023/07/05 00:56:09;;;;;;;6.97;3.30;;;20.30;93.90;;;;;;5096543;28;20886;-56
2023/07/05 00:58:36;;;;;;;4.23;3.40;;;20.30;94.20;;;;;;5096408;28;20431;-56
2023/07/05 01:01:03;;;;;;;3.20;2.90;;;20.30;94.30;;;;;;5096349;28;20493;-55
2023/07/05 01:03:32;;;;;;;4.10;2.93;;;20.30;94.50;;;;;;5096253;28;20471;-55
2023/07/05 01:06:00;;;;;;;3.50;3.20;;;20.20;94.60;;;;;;5096229;28;20439;-56
2023/07/05 01:08:26;;;;;;;5.13;3.33;;;20.20;94.90;;;;;;5096283;28;20455;-56
2023/07/05 01:11:02;;;;;;;5.57;3.10;;;20.10;94.80;;;;;;5096218;28;20451;-56
2023/07/05 01:13:32;;;;;;;4.47;3.23;;;20.10;95.10;;;;;;5096026;28;20533;-56
2023/07/05 01:16:16;;;;;;;3.40;2.90;;;20.10;95.30;;;;;;5095695;28;20878;-56
2023/07/05 01:18:51;;;;;;;5.63;3.40;;;20.10;95.50;;;;;;5095837;28;20464;-56
2023/07/05 01:21:24;;;;;;;5.07;3.27;;;20.10;95.60;;;;;;5095959;28;20423;-56
2023/07/05 01:24:22;;;;;;;4.17;2.97;;;20.10;95.60;;;;;;5095830;28;20476;-56
2023/07/05 01:27:12;;;;;;;3.73;2.73;;;20.10;95.60;;;;;;5095842;28;20835;-56
2023/07/05 01:30:05;;;;;;;3.33;2.77;;;20.00;95.90;;;;;;5095833;28;20481;-56
2023/07/05 01:32:39;;;;;;;3.60;2.80;;;19.90;95.90;;;;;;5095718;28;20861;-56
2023/07/05 01:35:13;;;;;;;2.83;2.63;;;20.00;96.00;;;;;;5095677;28;20478;-56
2023/07/05 01:37:42;;;;;;;2.87;2.67;;;19.90;96.00;;;;;;5095677;28;20457;-56
2023/07/05 01:40:54;;;;;;;5.60;3.80;;;19.90;96.00;;;;;;5095283;28;20879;-56
2023/07/05 01:43:22;;;;;;;5.67;3.17;;;19.80;96.60;;;;;;5095426;28;20463;-56
2023/07/05 01:46:00;;;;;;;3.30;2.47;;;19.80;96.80;;;;;;5095480;28;20447;-56
2023/07/05 01:48:37;;;;;;;2.50;2.30;;;19.80;96.80;;;;;;5095557;28;20472;-56
2023/07/05 01:51:11;;;;;;;3.17;2.70;;;19.80;96.80;;;;;;5095495;28;20424;-56
2023/07/05 01:53:48;;;;;;;3.10;2.37;;;19.80;97.10;;;;;;5095243;28;20496;-55
2023/07/05 01:56:20;;;;;;;4.67;2.90;;;19.80;97.30;;;;;;5095002;28;20974;-55
2023/07/05 01:58:50;;;;;;;4.17;2.97;;;19.70;97.60;;;;;;5094771;28;20440;-54
2023/07/05 02:01:18;;;;;;;4.97;2.73;;;19.70;97.60;;;;;;5095127;28;20459;-54
2023/07/05 02:03:49;;;;;;;3.90;2.20;;;19.70;98.00;;;;;;5095237;28;20487;-54
2023/07/05 02:06:17;;;;;;;4.20;2.90;;;19.70;97.90;;;;;;5095131;28;20438;-55
2023/07/05 02:08:45;;;;;;;4.23;2.67;;;19.70;98.30;;;;;;5095027;28;20454;-55
2023/07/05 02:11:12;;;;;;;3.53;2.50;;;19.70;98.20;;;;;;5094993;28;20448;-55
2023/07/05 02:13:39;;;;;;;4.90;3.10;;;19.70;98.10;;;;;;5094710;28;20545;-55
2023/07/05 02:16:05;;;;;;;3.67;2.90;;;19.70;98.40;;;;;;5094891;28;20452;-55
2023/07/05 02:18:32;;;;;;;5.07;3.20;;;19.70;98.50;;;;;;5095095;28;20513;-55
2023/07/05 02:21:00;;;;;;;3.30;2.13;;;19.70;98.70;;;;;;5094755;28;20454;-55
2023/07/05 02:23:27;;;;;;;3.97;3.17;;;19.70;98.70;;;;;;5095417;28;20463;-56
2023/07/05 02:25:59;;;;;;;3.43;2.80;;;19.70;98.80;;;;;;5094307;28;20801;-56
2023/07/05 02:28:26;;;;;;;4.07;2.83;;;19.70;98.90;;;;;;5094662;28;20440;-56
2023/07/05 02:30:52;;;;;;;5.20;2.93;;;19.70;98.90;;;;;;5094507;28;20451;-56
2023/07/05 02:33:19;;;;;;;5.53;2.93;;;19.80;99.00;;;;;;5094473;28;20499;-56
2023/07/05 02:35:46;;;;;;;2.90;2.40;;;19.80;98.90;;;;;;5094359;28;20447;-56
2023/07/05 02:38:14;;;;;;;3.63;2.60;;;19.80;98.70;;;;;;5094505;28;20451;-56
2023/07/05 02:40:40;;;;;;;2.73;2.10;;;19.80;99.00;;;;;;5094523;28;20448;-56
2023/07/05 02:43:07;;;;;;;3.00;2.30;;;19.90;98.80;;;;;;5094292;28;20471;-56
2023/07/05 02:45:36;;;;;;;4.50;2.77;;;19.90;98.70;;;;;;5093994;28;20446;-56
2023/07/05 02:48:03;;;;;;;3.23;2.77;;;19.80;98.50;;;;;;5094309;28;20452;-56
2023/07/05 02:50:29;;;;;;;3.57;2.53;;;19.70;98.60;;;;;;5094489;28;20526;-56
2023/07/05 02:52:56;;;;;;;5.60;2.60;;;19.70;98.40;;;;;;5093807;28;21011;-56
2023/07/05 02:55:24;;;;;;;2.33;1.63;;;19.60;98.20;;;;;;5094081;28;20487;-56
2023/07/05 02:57:51;;;;;;;1.47;1.37;;;19.40;96.50;;;;;;5094063;28;20447;-56
2023/07/05 03:00:20;;;;;;;1.37;1.20;;;19.30;95.60;;;;;;5094129;28;20443;-56
2023/07/05 03:02:46;;;;;;;1.87;1.20;;;18.90;92.80;;;;;;5093978;28;20472;-56
2023/07/05 03:05:14;;;;;;;2.07;1.60;;;18.80;93.60;;;;;;5094049;28;20444;-56
2023/07/05 03:07:41;;;;;;;2.70;1.73;;;18.70;94.70;;;;;;5095213;28;20444;-56
2023/07/05 03:10:08;;;;;;;1.47;1.37;;;18.50;93.60;;;;;;5093988;28;20475;-57
2023/07/05 03:12:36;;;;;;;2.60;1.70;;;18.40;93.80;;;;;;5093659;28;20463;-56
2023/07/05 03:15:03;;;;;;;1.70;1.30;;;18.40;94.00;;;;;;5093403;28;20873;-56
2023/07/05 03:17:30;;;;;;;1.50;1.40;;;18.30;93.30;;;;;;5093766;28;20541;-56
2023/07/05 03:19:59;;;;;;;14.73;1.50;;;18.10;93.30;;;;;;5093364;28;20482;-56
2023/07/05 03:22:26;;;;;;;4.43;1.80;;;18.00;91.90;;;;;;5093696;28;20499;-56
2023/07/05 03:24:53;;;;;;;1.63;1.30;;;17.80;92.60;;;;;;5093589;28;20436;-56
2023/07/05 03:27:20;;;;;;;2.23;1.30;;;17.80;92.70;;;;;;5094377;28;20440;-56
2023/07/05 03:29:48;;;;;;;2.60;1.60;;;17.70;93.30;;;;;;5094025;28;20448;-56
2023/07/05 03:32:15;;;;;;;2.90;1.70;;;17.60;91.80;;;;;;5093797;28;20463;-56
2023/07/05 03:34:42;;;;;;;1.50;1.40;;;17.40;90.60;;;;;;5093604;28;20483;-57
2023/07/05 03:37:08;;;;;;;3.57;1.97;;;17.30;91.40;;;;;;5093722;28;20448;-56
2023/07/05 03:39:35;;;;;;;1.90;1.67;;;17.10;92.30;;;;;;5093261;28;20501;-56
2023/07/05 03:42:02;;;;;;;8.83;2.80;;;17.10;91.80;;;;;;5093544;28;20475;-56
2023/07/05 03:44:29;;;;;;;3.17;1.80;;;16.90;91.80;;;;;;5093518;28;20518;-56
2023/07/05 03:46:57;;;;;;;6.03;2.03;;;16.70;92.10;;;;;;5093730;28;20469;-56
2023/07/05 03:49:24;;;;;;;2.30;2.10;;;16.70;92.70;;;;;;5093561;28;20452;-56
2023/07/05 03:51:51;;;;;;;2.93;1.90;;;16.70;92.00;;;;;;5093589;28;20435;-57
2023/07/05 03:54:18;;;;;;;5.23;2.07;;;16.70;92.60;;;;;;5093453;28;20529;-57
2023/07/05 03:56:45;;;;;;;2.43;2.00;;;16.70;91.90;;;;;;5093483;28;20531;-56
2023/07/05 03:59:12;;;;;;;9.20;3.50;;;16.60;91.10;;;;;;5093281;28;21026;-56
2023/07/05 04:01:38;;;;;;;5.93;2.33;;;16.50;91.40;;;;;;5093358;28;20470;-56
2023/07/05 04:04:06;;;;;;;3.17;2.30;;;16.50;91.00;;;;;;5093440;28;20448;-56
2023/07/05 04:06:34;;;;;;;5.70;2.43;;;16.40;91.20;;;;;;5093336;28;20448;-56
2023/07/05 04:09:01;;;;;;;3.40;2.90;;;16.30;90.90;;;;;;5093415;28;20871;-56
2023/07/05 04:11:29;;;;;;;3.80;2.10;;;16.30;91.40;;;;;;5093227;28;20521;-56
2023/07/05 04:13:56;;;;;;;4.27;2.63;;;16.30;91.30;;;;;;5093068;28;20483;-56
2023/07/05 04:16:26;;;;;;;3.77;2.43;;;16.30;91.50;;;;;;5093257;28;20443;-56
2023/07/05 04:18:54;;;;;;;7.00;2.83;;;16.40;91.20;;;;;;5093065;28;20459;-56
2023/07/05 04:21:23;;;;;;;5.13;2.50;;;16.40;91.30;;;;;;5092997;28;20964;-56
2023/07/05 04:23:50;;;;;;;3.90;2.83;;;16.40;90.50;;;;;;5096991;28;20521;-56
2023/07/05 04:26:19;;;;;;;5.63;2.80;;;16.40;90.70;;;;;;5097140;28;20496;-56
2023/07/05 04:28:46;;;;;;;3.47;2.57;;;16.40;90.30;;;;;;5097002;28;20851;-56
2023/07/05 04:31:17;;;;;;;5.73;3.10;;;16.50;90.40;;;;;;5097004;28;20474;-56
2023/07/05 04:33:44;;;;;;;6.33;3.03;;;16.50;90.30;;;;;;5096809;28;20471;-57
2023/07/05 04:36:11;;;;;;;5.37;3.17;;;16.60;90.60;;;;;;5096821;28;20447;-57
2023/07/05 04:38:39;;;;;;;3.93;2.70;;;16.70;90.90;;;;;;5096546;28;20557;-57
2023/07/05 04:41:05;;;;;;;6.17;3.30;;;16.70;89.60;;;;;;5096641;28;20443;-57
2023/07/05 04:43:32;;;;;;;5.97;2.80;;;16.80;90.20;;;;;;5096657;28;20540;-57
2023/07/05 04:46:00;;;;;;;6.00;2.93;;;16.80;90.20;;;;;;5096669;28;20443;-56
2023/07/05 04:48:30;;;;;;;4.27;2.57;;;16.90;89.00;;;;;;5096594;28;20867;-56
2023/07/05 04:50:57;;;;;;;12.63;3.27;;;16.90;89.80;;;;;;5096789;28;20454;-57
2023/07/05 04:53:26;;;;;;;3.60;2.93;;;17.00;89.10;;;;;;5096881;28;20827;-56
2023/07/05 04:55:56;;;;;;;3.80;2.30;;;17.00;89.20;;;;;;5096207;28;20490;-57
2023/07/05 04:58:23;;;;;;;4.17;3.03;;;17.10;89.40;;;;;;5096417;28;20443;-57
2023/07/05 05:00:50;;;;;;;6.60;3.07;;;17.30;88.60;;;;;;5096041;28;21014;-57
2023/07/05 05:03:19;;;;;;;5.23;3.53;;;17.40;88.70;;;;;;5096310;28;20537;-56
2023/07/05 05:05:47;;;;;;;4.67;3.40;;;17.50;87.80;;;;;;5096250;28;20446;-56
2023/07/05 05:08:14;;;;;;;4.57;2.53;;;17.40;86.50;;;;;;5096011;28;20825;-56
2023/07/05 05:10:41;;;;;;;8.73;3.60;;;17.50;87.20;;;;;;5096485;28;20447;-56
2023/07/05 05:13:09;;;;;;;4.33;2.90;;;17.50;87.50;;;;;;5095680;28;20470;-56
2023/07/05 05:15:37;;;;;;;3.23;2.93;;;17.50;86.70;;;;;;5095989;28;20480;-57
2023/07/05 05:18:04;;;;;;;3.33;3.03;;;17.50;87.10;;;;;;5095760;28;20458;-56
2023/07/05 05:20:31;;;;;;;3.43;2.97;;;17.60;87.50;;;;;;5096121;28;20431;-56
2023/07/05 05:22:58;;;;;;;5.47;3.43;;;17.60;87.60;;;;;;5095943;28;20464;-56
2023/07/05 05:25:25;;;;;;;3.27;2.97;;;17.60;86.70;;;;;;5095682;28;20447;-56
2023/07/05 05:27:52;;;;;;;5.60;3.20;;;17.70;86.60;;;;;;5095532;28;20452;-56
2023/07/05 05:30:21;;;;;;;3.60;2.63;;;17.70;85.70;;;;;;5095837;28;20451;-56
2023/07/05 05:32:48;;;;;;;5.10;3.30;;;17.50;83.20;;;;;;5095399;28;20973;-56
2023/07/05 05:35:14;;;;;;;9.80;3.03;;;17.50;83.90;;;;;;5094658;28;20475;-56
2023/07/05 05:37:41;;;;;;;4.37;2.90;;;17.50;82.90;;;;;;5095837;28;20840;-57
2023/07/05 05:40:09;;;;;;;3.13;2.67;;;17.40;82.10;;;;;;5095555;28;20443;-57
2023/07/05 05:42:36;;;;;;;3.60;3.30;;;17.30;82.40;;;;;;5095266;28;21017;-56
2023/07/05 05:45:03;;;;;;;3.00;2.60;;;17.30;82.30;;;;;;5095415;28;20447;-56
2023/07/05 05:47:31;;;;;;;6.23;3.43;;;17.30;83.00;;;;;;5095224;28;20444;-56
2023/07/05 05:49:58;;;;;;;7.27;2.70;;;17.20;81.90;;;;;;5095063;28;20864;-56
2023/07/05 05:52:25;;;;;;;3.60;3.20;;;17.10;81.70;;;;;;5095318;28;20468;-56
2023/07/05 05:54:52;;;;;;;6.93;3.20;;;17.00;81.90;;;;;;5094884;28;20997;-56
2023/07/05 05:57:18;;;;;;;4.57;2.57;;;17.00;83.70;;;;;;5095321;28;20451;-56
2023/07/05 05:59:45;;;;;;;9.03;3.37;;;17.00;83.10;;;;;;5095237;28;20443;-56
2023/07/05 06:02:12;;;;;;;4.87;2.53;;;16.90;82.20;;;;;;5095344;28;20486;-56
2023/07/05 06:04:40;;;;;;;6.23;3.00;;;16.90;82.00;;;;;;5095092;28;20926;-56
2023/07/05 06:07:06;;;;;;;3.97;2.50;;;16.90;81.50;;;;;;5094984;28;20475;-57
2023/07/05 06:09:38;;;;;;;3.33;2.53;;;17.00;81.60;;;;;;5094960;28;20497;-56
2023/07/05 06:12:06;;;;;;;3.87;3.57;;;16.90;82.10;;;;;;5094875;28;20502;-56
2023/07/05 06:14:32;;;;;;;5.27;2.90;;;17.00;81.90;;;;;;5094791;28;20487;-57
2023/07/05 06:16:59;;;;;;;3.60;2.60;;;17.00;80.20;;;;;;5094506;28;20937;-56
2023/07/05 06:19:25;;;;;;;4.50;2.37;;;17.00;79.70;;;;;;5094577;28;20513;-56
2023/07/05 06:21:53;;;;;;;3.20;2.57;;;17.10;80.90;;;;;;5094658;28;20448;-56
2023/07/05 06:24:20;;;;;;;6.00;3.03;;;17.20;79.70;;;;;;5094732;28;20448;-56
2023/07/05 06:26:47;;;;;;;5.00;2.03;;;17.10;79.80;;;;;;5094714;28;20447;-56
2023/07/05 06:29:13;;;;;;;3.50;2.57;;;17.10;78.00;;;;;;5094691;28;20448;-56
2023/07/05 06:31:40;;;;;;;5.83;2.30;;;17.10;77.50;;;;;;5094721;28;20458;-57
2023/07/05 06:34:07;;;;;;;6.80;2.00;;;17.20;79.00;;;;;;5094917;28;20444;-56
2023/07/05 06:36:33;;;;;;;5.20;2.07;;;17.20;77.10;;;;;;5094728;28;20479;-56
2023/07/05 06:39:01;;;;;;;7.63;2.70;;;17.20;77.80;;;;;;5094265;28;20975;-56
2023/07/05 06:41:28;;;;;;;3.83;2.00;;;17.20;79.80;;;;;;5094957;28;20461;-56
2023/07/05 06:43:55;;;;;;;3.00;2.30;;;17.30;78.90;;;;;;5094512;28;20472;-56
2023/07/05 06:46:22;;;;;;;2.93;2.33;;;17.40;79.10;;;;;;5094242;28;20444;-56
2023/07/05 06:48:50;;;;;;;4.13;1.90;;;17.50;78.40;;;;;;5094336;28;20822;-56
2023/07/05 06:51:17;;;;;;;3.60;2.40;;;17.60;78.20;;;;;;5094016;28;20448;-56
2023/07/05 06:53:44;;;;;;;3.00;2.20;;;17.50;79.40;;;;;;5094175;28;20471;-56
2023/07/05 06:56:12;;;;;;;6.70;2.23;;;17.50;79.30;;;;;;5094142;28;20476;-56
2023/07/05 06:58:39;;;;;;;7.80;2.13;;;17.60;78.40;;;;;;5093884;28;20817;-56
2023/07/05 07:01:06;;;;;;;3.77;1.43;;;17.50;76.40;;;;;;5094262;28;20444;-56
2023/07/05 07:03:33;;;;;;;9.10;1.90;;;17.50;77.00;;;;;;5094081;28;20521;-56
2023/07/05 07:06:00;;;;;;;4.13;1.60;;;17.50;76.30;;;;;;5094158;28;20440;-56
2023/07/05 07:08:30;;;;;;;8.10;2.40;;;17.50;77.60;;;;;;5093624;28;20964;-56
2023/07/05 07:11:00;;;;;;;13.83;2.03;;;17.40;76.70;;;;;;5093697;28;20518;-56
2023/07/05 07:13:28;;;;;;;5.43;1.60;;;17.40;78.90;;;;;;5093805;28;20506;-56
2023/07/05 07:16:03;;;;;;;2.20;1.70;;;17.40;79.30;;;;;;5093700;28;20482;-56
2023/07/05 07:18:29;;;;;;;1.80;1.70;;;17.40;78.90;;;;;;5093839;28;20466;-56
2023/07/05 07:20:57;;;;;;;4.87;2.70;;;17.50;79.40;;;;;;5093812;28;20429;-56
2023/07/05 07:23:24;;;;;;;6.20;2.20;;;17.50;79.10;;;;;;5093736;28;20486;-56
2023/07/05 07:25:58;;;;;;;8.00;2.33;;;17.40;78.90;;;;;;5093449;28;20933;-56
2023/07/05 07:28:25;;;;;;;8.73;2.13;;;17.40;78.20;;;;;;5093654;28;20423;-56
2023/07/05 07:30:53;;;;;;;4.43;2.40;;;17.20;78.20;;;;;;5093304;28;20452;-56
2023/07/05 07:33:20;;;;;;;6.70;1.63;;;17.20;79.00;;;;;;5093828;28;20464;-56
2023/07/05 07:35:48;;;;;;;8.67;2.07;;;17.30;78.80;;;;;;5094891;28;20488;-56
2023/07/05 07:38:15;;;;;;;10.23;2.43;;;17.20;77.20;;;;;;5094901;28;20448;-56
2023/07/05 07:40:41;;;;;;;4.63;2.00;;;17.20;77.30;;;;;;5094942;28;20444;-56
2023/07/05 07:43:08;;;;;;;4.10;1.60;;;17.20;77.80;;;;;;5093625;28;20467;-56
2023/07/05 07:45:35;;;;;;;7.23;1.43;;;17.30;78.10;;;;;;5093683;28;20444;-56
2023/07/05 07:48:04;;;;;;;3.33;1.70;;;17.30;78.30;;;;;;5093552;28;20448;-56
2023/07/05 07:50:31;;;;;;;8.77;1.93;;;17.20;78.70;;;;;;5093737;28;20455;-56
2023/07/05 07:52:58;;;;;;;6.70;1.73;;;17.10;77.80;;;;;;5093649;28;20480;-56
2023/07/05 07:55:24;;;;;;;3.87;1.73;;;17.10;78.40;;;;;;5093670;28;20480;-56
2023/07/05 07:57:51;;;;;;;7.83;1.53;;;17.20;78.20;;;;;;5095550;28;20452;-56
2023/07/05 08:00:18;;;;;;;6.07;1.30;;;17.30;77.80;;;;;;5097657;28;20447;-56
2023/07/05 08:02:45;;;;;;;2.77;1.70;;;17.50;76.10;;;;;;5097804;28;20467;-56
2023/07/05 08:05:18;;;;;;;4.67;1.57;;;17.80;76.00;;;;;;5097834;28;20442;-56
2023/07/05 08:07:45;;;;;;;3.97;1.23;;;18.00;73.50;;;;;;5097958;28;20444;-56
2023/07/05 08:10:11;;;;;;;5.37;1.47;;;18.20;71.10;;;;;;5097605;28;20451;-56
2023/07/05 08:12:38;;;;;;;5.67;1.30;;;18.40;71.40;;;;;;5097160;28;20472;-56
2023/07/05 08:15:06;;;;;;;5.90;1.60;;;18.50;72.60;;;;;;5097488;28;20453;-56
2023/07/05 08:17:34;;;;;;;5.53;2.33;;;18.50;70.50;;;;;;5097590;28;20454;-56
2023/07/05 08:20:01;;;;;;;7.73;2.20;;;18.40;71.30;;;;;;5097167;28;20456;-56
2023/07/05 08:22:29;;;;;;;13.17;1.93;;;18.50;72.20;;;;;;5097042;28;20474;-56
2023/07/05 08:24:56;;;;;;;14.20;2.20;;;18.60;70.50;;;;;;5097932;28;20789;-56
2023/07/05 08:27:23;;;;;;;10.07;2.17;;;18.60;69.10;;;;;;5096966;28;20447;-56
2023/07/05 08:29:49;;;;;;;14.60;2.70;;;18.60;71.20;;;;;;5096964;28;20447;-56
2023/07/05 08:32:16;;;;;;;11.87;2.47;;;18.80;70.60;;;;;;5096618;28;20471;-56
2023/07/05 08:34:43;;;;;;;20.33;2.63;;;18.90;68.30;;;;;;5096828;28;20450;-56
2023/07/05 08:37:10;;;;;;;12.93;2.07;;;18.90;68.60;;;;;;5096789;28;20486;-56
2023/07/05 08:39:38;;;;;;;13.30;2.37;;;18.90;66.90;;;;;;5096788;28;20443;-56
2023/07/05 08:42:30;;;;;;;24.10;2.30;;;18.80;67.00;;;;;;5096681;28;20467;-56
2023/07/05 08:45:08;;;;;;;10.53;1.70;;;18.80;68.00;;;;;;5096772;28;20431;-56
2023/07/05 08:47:43;;;;;;;14.70;2.63;;;18.60;66.50;;;;;;5096719;28;20422;-56
2023/07/05 08:50:19;;;;;;;12.57;2.10;;;18.50;68.40;;;;;;5096644;28;20427;-56
2023/07/05 08:52:48;;;;;;;20.87;2.60;;;18.50;67.90;;;;;;5096654;28;20463;-56
2023/07/05 08:55:21;;;;;;;17.50;2.23;;;18.40;66.10;;;;;;5096475;28;20475;-56
2023/07/05 08:57:52;;;;;;;12.90;2.60;;;18.40;68.30;;;;;;5096455;28;20489;-56
2023/07/05 09:00:25;;;;;;;18.53;2.30;;;18.50;67.80;;;;;;5096679;28;20795;-56
2023/07/05 09:02:52;;;;;;;36.87;2.77;;;18.60;69.00;;;;;;5096288;28;20520;-56
2023/07/05 09:05:26;;;;;;;30.07;4.40;;;18.60;67.80;;;;;;5096276;28;20807;-56
2023/07/05 09:08:03;;;;;;;31.70;3.60;;;18.80;68.40;;;;;;5095865;28;20447;-56
2023/07/05 09:10:38;;;;;;;35.37;3.60;;;18.80;66.70;;;;;;5095663;28;20438;-56
2023/07/05 09:13:15;;;;;;;18.13;2.33;;;18.90;67.20;;;;;;5096406;28;20471;-56
2023/07/05 09:15:49;;;;;;;16.67;1.87;;;19.10;65.70;;;;;;5096054;28;20471;-56
2023/07/05 09:18:22;;;;;;;24.47;2.47;;;19.20;63.70;;;;;;5095795;28;20933;-56
2023/07/05 09:20:59;;;;;;;28.20;3.70;;;19.40;64.20;;;;;;5096157;28;20428;-56
2023/07/05 09:23:29;;;;;;;37.20;4.13;;;19.60;62.00;;;;;;5096032;28;20467;-56
2023/07/05 09:26:04;;;;;;;28.13;3.60;;;19.60;60.10;;;;;;5095909;28;20439;-56
2023/07/05 09:28:36;;;;;;;33.13;4.57;;;19.70;62.60;;;;;;5095949;28;20435;-56
2023/07/05 09:31:09;;;;;;;32.73;4.17;;;19.90;61.10;;;;;;5095892;28;20432;-56
2023/07/05 09:33:41;;;;;;;20.17;3.67;;;20.10;59.70;;;;;;5095667;28;20468;-56
2023/07/05 09:36:13;;;;;;;30.50;3.67;;;20.10;59.40;;;;;;5095647;28;20464;-56
2023/07/05 09:38:46;;;;;;;30.33;4.20;;;20.00;58.90;;;;;;5095695;28;20428;-56
2023/07/05 09:41:18;;;;;;;21.17;3.00;;;20.00;58.50;;;;;;5095504;28;20918;-56
2023/07/05 09:43:45;;;;;;;11.63;3.90;;;20.10;59.20;;;;;;5096514;28;20471;-56
2023/07/05 09:46:20;;;;;;;56.40;4.83;;;20.10;57.80;;;;;;5096405;28;20440;-56
2023/07/05 09:48:47;;;;;;;45.73;5.50;;;20.00;58.70;;;;;;5095782;28;20432;-56
2023/07/05 09:51:16;;;;;;;29.67;3.30;;;19.80;57.80;;;;;;5095476;28;20451;-56
2023/07/05 09:53:47;;;;;;;28.80;3.10;;;19.80;57.80;;;;;;5094981;28;20463;-56
2023/07/05 09:56:18;;;;;;;26.90;2.80;;;19.60;57.80;;;;;;5095322;28;20973;-56
2023/07/05 09:58:45;;;;;;;23.27;4.40;;;19.80;58.60;;;;;;5094886;28;20431;-56
2023/07/05 10:01:16;;;;;;;17.63;2.63;;;20.00;58.00;;;;;;5095369;28;20451;-56
2023/07/05 10:03:52;;;;;;;31.23;4.33;;;20.10;55.80;;;;;;5095318;28;20471;-56
2023/07/05 10:06:20;;;;;;;41.33;3.97;;;20.40;56.70;;;;;;5095225;28;20436;-56
2023/07/05 10:08:50;;;;;;;26.60;4.10;;;20.80;56.30;;;;;;5095043;28;20895;-56
2023/07/05 10:11:23;;;;;;;26.70;3.77;;;21.30;54.00;;;;;;5094824;28;20814;-56
2023/07/05 10:14:02;;;;;;;33.43;4.17;;;21.60;53.40;;;;;;5095021;28;20456;-56
2023/07/05 10:16:45;;;;;;;16.83;2.63;;;22.00;54.10;;;;;;5095010;28;20493;-56
2023/07/05 10:19:21;;;;;;;29.50;3.57;;;22.30;52.20;;;;;;5095067;28;20479;-56
2023/07/05 10:21:48;;;;;;;29.60;5.00;;;22.40;51.50;;;;;;5095158;28;20444;-56
2023/07/05 10:24:19;;;;;;;14.47;2.80;;;22.40;50.80;;;;;;5095916;28;20455;-57
2023/07/05 10:26:50;;;;;;;16.33;3.00;;;22.60;50.00;;;;;;5094948;28;20478;-56
2023/07/05 10:29:21;;;;;;;15.13;2.90;;;22.80;50.50;;;;;;5094735;28;20427;-56
2023/07/05 10:31:54;;;;;;;25.60;3.97;;;23.10;47.60;;;;;;5094790;28;20971;-56
2023/07/05 10:34:23;;;;;;;32.67;3.63;;;22.90;47.00;;;;;;5094784;28;20854;-56
2023/07/05 10:36:51;;;;;;;27.40;4.80;;;22.80;49.40;;;;;;5094418;28;20483;-56
2023/07/05 10:39:22;;;;;;;19.47;3.10;;;22.60;47.60;;;;;;5094514;28;20454;-56
2023/07/05 10:41:52;;;;;;;34.60;4.50;;;22.50;47.50;;;;;;5094395;28;20436;-56
2023/07/05 10:44:26;;;;;;;27.80;4.37;;;22.70;48.10;;;;;;5094407;28;20446;-56
2023/07/05 10:46:54;;;;;;;41.77;6.00;;;22.80;47.40;;;;;;5094483;28;20429;-56
2023/07/05 10:49:22;;;;;;;19.63;2.43;;;22.40;46.10;;;;;;5094295;28;20456;-56
2023/07/05 10:51:53;;;;;;;17.17;2.73;;;22.30;47.20;;;;;;5093952;28;20817;-56
2023/07/05 10:54:30;;;;;;;14.53;2.83;;;22.10;47.10;;;;;;5094323;28;20438;-56
2023/07/05 10:57:00;;;;;;;7.63;2.00;;;22.30;47.30;;;;;;5094250;28;20467;-56
2023/07/05 10:59:38;;;;;;;32.53;3.67;;;23.00;46.10;;;;;;5094170;28;20428;-56
2023/07/05 11:02:31;;;;;;;30.47;4.50;;;23.60;44.90;;;;;;5093779;28;20995;-56
2023/07/05 11:04:59;;;;;;;29.23;4.30;;;23.60;44.70;;;;;;5083819;28;20459;-56
2023/07/05 11:07:26;;;;;;;10.33;2.20;;;23.80;43.70;;;;;;5075893;28;20448;-56
2023/07/05 11:09:53;;;;;;;17.00;2.87;;;23.80;43.50;;;;;;5073755;28;20478;-56
2023/07/05 11:12:23;;;;;;;19.23;2.57;;;23.80;45.00;;;;;;5073475;28;20476;-56
2023/07/05 11:14:50;;;;;;;20.13;3.50;;;23.70;43.40;;;;;;5073987;28;20458;-56
2023/07/05 11:17:25;;;;;;;21.73;3.23;;;23.70;42.10;;;;;;5073459;28;20480;-56
2023/07/05 11:19:52;;;;;;;24.20;3.43;;;23.50;44.10;;;;;;5073157;28;20456;-56
2023/07/05 11:22:46;;;;;;;17.60;2.43;;;23.90;44.30;;;;;;5073282;28;20464;-56
2023/07/05 11:25:16;;;;;;;8.03;2.10;;;24.80;42.10;;;;;;5026484;28;20456;-56
2023/07/05 11:27:57;;;;;;;21.97;2.90;;;25.60;41.20;;;;;;5073179;28;20903;-56
2023/07/05 11:30:39;;;;;;;10.43;2.80;;;25.90;37.20;;;;;;5073517;28;20427;-56
2023/07/05 11:33:16;;;;;;;26.63;3.97;;;25.20;37.80;;;;;;5072560;28;20519;-56
2023/07/05 11:35:45;;;;;;;32.50;4.47;;;25.10;40.30;;;;;;5073365;28;20440;-56
2023/07/05 11:39:07;;;;;;;20.67;3.23;;;26.00;37.00;;;;;;5073349;28;20476;-56
2023/07/05 11:41:38;;;;;;;4.73;1.60;;;27.00;36.40;;;;;;5073383;28;20539;-56
2023/07/05 11:44:27;;;;;;;6.30;2.10;;;26.80;34.60;;;;;;5072931;28;20495;-56
2023/07/05 11:46:54;;;;;;;8.10;2.03;;;26.00;35.30;;;;;;5073292;28;20448;-56
2023/07/05 11:49:35;;;;;;;7.93;1.50;;;25.00;38.40;;;;;;5073203;28;20444;-56
2023/07/05 11:52:12;;;;;;;26.30;3.40;;;24.10;41.40;;;;;;5072828;28;21001;-56
2023/07/05 11:54:47;;;;;;;26.50;4.00;;;23.30;43.60;;;;;;5073205;28;20443;-56
2023/07/05 11:57:14;;;;;;;21.87;3.60;;;22.50;45.40;;;;;;5073985;28;20468;-56
2023/07/05 11:59:49;;;;;;;29.60;4.43;;;21.90;47.70;;;;;;5073195;28;20455;-56
2023/07/05 12:02:33;;;;;;;23.70;3.40;;;21.50;49.40;;;;;;5073096;28;20548;-56
2023/07/05 12:05:05;;;;;;;15.97;2.87;;;22.10;50.10;;;;;;5073028;28;20436;-56
2023/07/05 12:07:32;;;;;;;6.67;2.07;;;22.80;47.50;;;;;;5073089;28;20428;-56
2023/07/05 12:10:00;;;;;;;6.53;2.03;;;23.00;46.90;;;;;;5073018;28;20448;-56
2023/07/05 12:12:27;;;;;;;10.43;3.10;;;23.10;48.40;;;;;;5073044;28;20882;-56
2023/07/05 12:14:55;;;;;;;28.97;3.73;;;22.70;46.60;;;;;;5073799;28;20448;-56
2023/07/05 12:17:26;;;;;;;26.43;3.87;;;22.80;46.30;;;;;;5072828;28;20476;-56
2023/07/05 12:19:53;;;;;;;20.73;3.43;;;22.80;45.40;;;;;;5072918;28;20839;-56
2023/07/05 12:22:25;;;;;;;19.90;3.30;;;22.80;46.50;;;;;;5072756;28;20464;-56
2023/07/05 12:24:54;;;;;;;25.87;3.60;;;23.10;46.20;;;;;;5072978;28;20468;-56
2023/07/05 12:27:24;;;;;;;18.03;3.70;;;24.10;46.70;;;;;;5074081;28;20452;-56
2023/07/05 12:29:52;;;;;;;21.23;3.20;;;25.30;44.90;;;;;;5073750;28;20449;-56
2023/07/05 12:32:24;;;;;;;24.00;4.70;;;26.40;42.80;;;;;;5073312;28;20465;-56
2023/07/05 12:35:06;;;;;;;24.03;3.80;;;26.70;41.40;;;;;;5072856;28;20434;-56
2023/07/05 12:37:34;;;;;;;24.23;3.17;;;26.20;42.10;;;;;;5072767;28;20490;-56
2023/07/05 12:40:26;;;;;;;21.63;3.50;;;25.50;43.40;;;;;;5072895;28;20460;-56
2023/07/05 12:42:55;;;;;;;21.17;3.00;;;24.70;45.60;;;;;;5072983;28;20491;-56
2023/07/05 12:45:26;;;;;;;11.30;2.47;;;24.30;47.60;;;;;;5076768;28;20493;-56
2023/07/05 12:47:54;;;;;;;15.87;2.90;;;24.00;47.70;;;;;;5076352;28;20519;-56
2023/07/05 12:50:22;;;;;;;23.67;3.17;;;23.80;49.00;;;;;;5076249;28;20452;-56
2023/07/05 12:53:01;;;;;;;18.23;2.70;;;24.20;48.80;;;;;;5076443;28;20477;-56
2023/07/05 12:55:31;;;;;;;9.97;1.80;;;24.70;47.30;;;;;;5076231;28;20459;-56
2023/07/05 12:57:58;;;;;;;13.83;2.37;;;25.70;46.40;;;;;;5075907;28;20903;-56